Terminal Aerodrome Forecast
Issued by NWS Wilmington, NC

Home | Current Version | Previous Version | Text Only | Print | Product List | Glossary On
Versions: 1 2 3 4 5 6 7 8 9 10 11 12 13 14 15 16 17
000
FTUS42 KILM 252348 CCC
TAFILM
TAF COR
KILM 252348Z 2600/2624 18005KT P6SM VCSH BKN012 OVC025
     FM260200 19007KT P6SM SCT015 BKN025
      TEMPO 2605/2607 28008KT 3SM SHRA SCT015 SCT025 BKN060
     FM260700 25004KT 4SM BR SCT004 SCT150
     FM261000 26008KT P6SM BKN006
     FM261400 27010KT P6SM VCSH SCT008 BKN020
     FM261800 35010KT P6SM VCSH SCT025 BKN050=

USA.gov is the U.S. government's official web portal to all federal, state and local government web resources and services.